sensor_id;sensor_type;location;lat;lon;timestamp;P1;durP1;ratioP1;P2;durP2;ratioP2
17854;SDS011;9053;53.358;6.382;2023-05-10T00:07:49;9.43;;;8.30;;
17854;SDS011;9053;53.358;6.382;2023-05-10T00:10:19;9.97;;;8.17;;
17854;SDS011;9053;53.358;6.382;2023-05-10T00:12:49;11.57;;;8.77;;
17854;SDS011;9053;53.358;6.382;2023-05-10T00:15:19;10.07;;;8.83;;
17854;SDS011;9053;53.358;6.382;2023-05-10T00:17:49;9.50;;;7.50;;
17854;SDS011;9053;53.358;6.382;2023-05-10T00:20:19;10.40;;;8.10;;
17854;SDS011;9053;53.358;6.382;2023-05-10T00:22:51;10.70;;;8.50;;
17854;SDS011;9053;53.358;6.382;2023-05-10T00:25:21;11.83;;;9.20;;
17854;SDS011;9053;53.358;6.382;2023-05-10T00:27:51;10.10;;;8.70;;
17854;SDS011;9053;53.358;6.382;2023-05-10T00:30:22;9.73;;;8.00;;
17854;SDS011;9053;53.358;6.382;2023-05-10T00:32:53;10.33;;;8.47;;
17854;SDS011;9053;53.358;6.382;2023-05-10T00:35:23;11.43;;;8.90;;
17854;SDS011;9053;53.358;6.382;2023-05-10T00:37:55;10.53;;;8.13;;
17854;SDS011;9053;53.358;6.382;2023-05-10T00:40:25;9.40;;;8.30;;
17854;SDS011;9053;53.358;6.382;2023-05-10T00:42:56;9.47;;;7.33;;
17854;SDS011;9053;53.358;6.382;2023-05-10T00:45:27;9.23;;;7.80;;
17854;SDS011;9053;53.358;6.382;2023-05-10T00:47:57;10.77;;;7.75;;
17854;SDS011;9053;53.358;6.382;2023-05-10T00:50:29;9.70;;;7.97;;
17854;SDS011;9053;53.358;6.382;2023-05-10T00:53:02;9.67;;;7.20;;
17854;SDS011;9053;53.358;6.382;2023-05-10T00:55:32;7.77;;;6.73;;
17854;SDS011;9053;53.358;6.382;2023-05-10T00:58:02;9.13;;;7.90;;
17854;SDS011;9053;53.358;6.382;2023-05-10T01:00:33;8.63;;;6.90;;
17854;SDS011;9053;53.358;6.382;2023-05-10T01:03:05;10.60;;;8.13;;
17854;SDS011;9053;53.358;6.382;2023-05-10T04:17:22;8.23;;;7.43;;
17854;SDS011;9053;53.358;6.382;2023-05-10T04:19:55;8.43;;;7.63;;
17854;SDS011;9053;53.358;6.382;2023-05-10T04:22:25;8.30;;;6.30;;
17854;SDS011;9053;53.358;6.382;2023-05-10T04:24:55;5.70;;;5.20;;
17854;SDS011;9053;53.358;6.382;2023-05-10T04:27:28;5.10;;;4.43;;
17854;SDS011;9053;53.358;6.382;2023-05-10T04:29:58;5.67;;;4.90;;
17854;SDS011;9053;53.358;6.382;2023-05-10T04:32:31;5.57;;;5.07;;
17854;SDS011;9053;53.358;6.382;2023-05-10T04:35:01;4.60;;;4.20;;
17854;SDS011;9053;53.358;6.382;2023-05-10T04:37:31;5.20;;;4.70;;
17854;SDS011;9053;53.358;6.382;2023-05-10T04:40:01;5.20;;;4.70;;
17854;SDS011;9053;53.358;6.382;2023-05-10T04:42:32;4.63;;;4.23;;
17854;SDS011;9053;53.358;6.382;2023-05-10T04:45:02;4.10;;;3.57;;
17854;SDS011;9053;53.358;6.382;2023-05-10T04:47:36;3.20;;;2.90;;
17854;SDS011;9053;53.358;6.382;2023-05-10T04:50:08;2.73;;;2.53;;
17854;SDS011;9053;53.358;6.382;2023-05-10T04:52:38;2.10;;;1.80;;
17854;SDS011;9053;53.358;6.382;2023-05-10T04:55:08;1.90;;;1.80;;
17854;SDS011;9053;53.358;6.382;2023-05-10T04:57:38;1.60;;;1.50;;
17854;SDS011;9053;53.358;6.382;2023-05-10T05:00:09;1.60;;;1.47;;
17854;SDS011;9053;53.358;6.382;2023-05-10T05:02:45;1.43;;;1.20;;
17854;SDS011;9053;53.358;6.382;2023-05-10T05:05:21;1.30;;;1.20;;
17854;SDS011;9053;53.358;6.382;2023-05-10T05:07:53;1.20;;;1.10;;
17854;SDS011;9053;53.358;6.382;2023-05-10T05:10:22;1.30;;;1.20;;
17854;SDS011;9053;53.358;6.382;2023-05-10T05:12:52;1.30;;;1.20;;
17854;SDS011;9053;53.358;6.382;2023-05-10T05:15:25;1.17;;;1.07;;
17854;SDS011;9053;53.358;6.382;2023-05-10T05:18:04;1.30;;;1.20;;
17854;SDS011;9053;53.358;6.382;2023-05-10T05:20:38;2.13;;;1.30;;
17854;SDS011;9053;53.358;6.382;2023-05-10T05:23:08;1.50;;;1.40;;
17854;SDS011;9053;53.358;6.382;2023-05-10T05:25:44;1.47;;;1.37;;
17854;SDS011;9053;53.358;6.382;2023-05-10T05:28:21;2.30;;;1.77;;
17854;SDS011;9053;53.358;6.382;2023-05-10T05:30:59;2.70;;;2.43;;
17854;SDS011;9053;53.358;6.382;2023-05-10T05:33:43;3.20;;;2.90;;
17854;SDS011;9053;53.358;6.382;2023-05-10T05:36:19;3.80;;;3.50;;
17854;SDS011;9053;53.358;6.382;2023-05-10T05:38:49;3.30;;;3.00;;
17854;SDS011;9053;53.358;6.382;2023-05-10T05:41:27;3.67;;;3.10;;
17854;SDS011;9053;53.358;6.382;2023-05-10T05:43:57;3.50;;;3.17;;
17854;SDS011;9053;53.358;6.382;2023-05-10T05:46:30;3.67;;;2.60;;
17854;SDS011;9053;53.358;6.382;2023-05-10T05:49:10;3.07;;;2.77;;
17854;SDS011;9053;53.358;6.382;2023-05-10T05:51:40;3.80;;;3.37;;
17854;SDS011;9053;53.358;6.382;2023-05-10T05:54:09;4.50;;;4.03;;
17854;SDS011;9053;53.358;6.382;2023-05-10T05:56:39;5.33;;;4.83;;
17854;SDS011;9053;53.358;6.382;2023-05-10T05:59:10;6.27;;;5.63;;
17854;SDS011;9053;53.358;6.382;2023-05-10T06:01:40;8.47;;;7.40;;
17854;SDS011;9053;53.358;6.382;2023-05-10T06:04:14;9.20;;;8.30;;
17854;SDS011;9053;53.358;6.382;2023-05-10T06:06:44;12.03;;;10.80;;
17854;SDS011;9053;53.358;6.382;2023-05-10T06:09:15;13.97;;;12.57;;
17854;SDS011;9053;53.358;6.382;2023-05-10T06:11:45;13.90;;;12.47;;
17854;SDS011;9053;53.358;6.382;2023-05-10T06:14:14;13.97;;;12.10;;
17854;SDS011;9053;53.358;6.382;2023-05-10T06:16:44;12.03;;;10.90;;
17854;SDS011;9053;53.358;6.382;2023-05-10T06:19:20;10.30;;;9.40;;
17854;SDS011;9053;53.358;6.382;2023-05-10T06:21:49;8.73;;;7.93;;
17854;SDS011;9053;53.358;6.382;2023-05-10T06:24:19;8.97;;;8.17;;
17854;SDS011;9053;53.358;6.382;2023-05-10T06:26:49;9.60;;;6.70;;
17854;SDS011;9053;53.358;6.382;2023-05-10T06:29:19;6.47;;;5.87;;
17854;SDS011;9053;53.358;6.382;2023-05-10T06:31:49;6.07;;;5.50;;
17854;SDS011;9053;53.358;6.382;2023-05-10T06:34:22;6.30;;;5.80;;
17854;SDS011;9053;53.358;6.382;2023-05-10T06:36:52;5.90;;;5.40;;
17854;SDS011;9053;53.358;6.382;2023-05-10T06:39:22;6.10;;;5.50;;
17854;SDS011;9053;53.358;6.382;2023-05-10T06:41:51;5.00;;;4.50;;
17854;SDS011;9053;53.358;6.382;2023-05-10T06:44:21;5.97;;;5.47;;
17854;SDS011;9053;53.358;6.382;2023-05-10T06:46:51;6.27;;;5.67;;
17854;SDS011;9053;53.358;6.382;2023-05-10T06:49:24;5.50;;;5.00;;
17854;SDS011;9053;53.358;6.382;2023-05-10T06:51:59;5.33;;;4.83;;
17854;SDS011;9053;53.358;6.382;2023-05-10T06:54:29;4.83;;;4.10;;
17854;SDS011;9053;53.358;6.382;2023-05-10T06:56:58;4.03;;;3.63;;
17854;SDS011;9053;53.358;6.382;2023-05-10T06:59:34;4.47;;;4.07;;
17854;SDS011;9053;53.358;6.382;2023-05-10T07:02:04;3.97;;;3.67;;
17854;SDS011;9053;53.358;6.382;2023-05-10T07:04:37;3.57;;;3.27;;
17854;SDS011;9053;53.358;6.382;2023-05-10T07:07:07;3.53;;;3.23;;
17854;SDS011;9053;53.358;6.382;2023-05-10T07:09:37;4.10;;;3.70;;
17854;SDS011;9053;53.358;6.382;2023-05-10T07:12:07;3.80;;;3.50;;
17854;SDS011;9053;53.358;6.382;2023-05-10T07:14:40;3.50;;;3.20;;
17854;SDS011;9053;53.358;6.382;2023-05-10T07:17:10;3.50;;;3.20;;
17854;SDS011;9053;53.358;6.382;2023-05-10T07:19:43;3.60;;;3.30;;
17854;SDS011;9053;53.358;6.382;2023-05-10T07:22:14;2.97;;;2.70;;
17854;SDS011;9053;53.358;6.382;2023-05-10T07:24:44;3.83;;;3.53;;
17854;SDS011;9053;53.358;6.382;2023-05-10T07:27:15;3.70;;;3.40;;
17854;SDS011;9053;53.358;6.382;2023-05-10T07:29:44;3.43;;;3.13;;
17854;SDS011;9053;53.358;6.382;2023-05-10T07:32:15;3.40;;;3.10;;
17854;SDS011;9053;53.358;6.382;2023-05-10T07:34:47;4.27;;;3.83;;
17854;SDS011;9053;53.358;6.382;2023-05-10T07:37:20;3.83;;;3.53;;
17854;SDS011;9053;53.358;6.382;2023-05-10T07:39:52;3.87;;;3.17;;
17854;SDS011;9053;53.358;6.382;2023-05-10T07:42:22;3.03;;;2.83;;
17854;SDS011;9053;53.358;6.382;2023-05-10T07:44:52;4.03;;;3.43;;
17854;SDS011;9053;53.358;6.382;2023-05-10T07:47:22;3.17;;;2.87;;
17854;SDS011;9053;53.358;6.382;2023-05-10T07:49:55;3.43;;;3.13;;
17854;SDS011;9053;53.358;6.382;2023-05-10T07:52:25;3.33;;;3.10;;
17854;SDS011;9053;53.358;6.382;2023-05-10T07:54:55;3.90;;;3.60;;
17854;SDS011;9053;53.358;6.382;2023-05-10T07:57:24;3.73;;;3.23;;
17854;SDS011;9053;53.358;6.382;2023-05-10T07:59:54;4.23;;;3.83;;
17854;SDS011;9053;53.358;6.382;2023-05-10T08:02:24;3.50;;;3.20;;
17854;SDS011;9053;53.358;6.382;2023-05-10T08:05:00;2.60;;;2.40;;
17854;SDS011;9053;53.358;6.382;2023-05-10T08:07:31;2.40;;;2.20;;
17854;SDS011;9053;53.358;6.382;2023-05-10T08:10:01;2.77;;;2.37;;
17854;SDS011;9053;53.358;6.382;2023-05-10T08:12:31;3.00;;;2.33;;
17854;SDS011;9053;53.358;6.382;2023-05-10T08:15:01;2.50;;;2.30;;
17854;SDS011;9053;53.358;6.382;2023-05-10T08:17:32;1.60;;;1.50;;
17854;SDS011;9053;53.358;6.382;2023-05-10T08:20:05;2.03;;;1.50;;
17854;SDS011;9053;53.358;6.382;2023-05-10T08:22:36;2.73;;;1.87;;
17854;SDS011;9053;53.358;6.382;2023-05-10T08:25:06;2.37;;;2.17;;
17854;SDS011;9053;53.358;6.382;2023-05-10T08:27:39;2.40;;;2.20;;
17854;SDS011;9053;53.358;6.382;2023-05-10T08:30:09;2.80;;;2.13;;
17854;SDS011;9053;53.358;6.382;2023-05-10T08:32:39;4.30;;;2.53;;
17854;SDS011;9053;53.358;6.382;2023-05-10T08:35:12;2.53;;;2.23;;
17854;SDS011;9053;53.358;6.382;2023-05-10T08:37:42;3.40;;;3.10;;
17854;SDS011;9053;53.358;6.382;2023-05-10T08:40:12;4.13;;;3.50;;
17854;SDS011;9053;53.358;6.382;2023-05-10T08:42:45;6.60;;;4.20;;
17854;SDS011;9053;53.358;6.382;2023-05-10T08:45:20;5.00;;;3.90;;
17854;SDS011;9053;53.358;6.382;2023-05-10T08:47:53;4.47;;;3.87;;
17854;SDS011;9053;53.358;6.382;2023-05-10T08:50:26;4.67;;;3.60;;
17854;SDS011;9053;53.358;6.382;2023-05-10T08:52:57;5.90;;;3.87;;
17854;SDS011;9053;53.358;6.382;2023-05-10T08:55:33;4.50;;;4.10;;
17854;SDS011;9053;53.358;6.382;2023-05-10T08:58:05;5.07;;;4.00;;
17854;SDS011;9053;53.358;6.382;2023-05-10T09:00:36;3.60;;;2.90;;
17854;SDS011;9053;53.358;6.382;2023-05-10T09:03:06;3.70;;;3.30;;
17854;SDS011;9053;53.358;6.382;2023-05-10T09:05:42;4.13;;;3.63;;
17854;SDS011;9053;53.358;6.382;2023-05-10T09:08:11;3.73;;;3.20;;
17854;SDS011;9053;53.358;6.382;2023-05-10T09:10:52;3.60;;;3.20;;
17854;SDS011;9053;53.358;6.382;2023-05-10T09:13:26;3.63;;;3.17;;
17854;SDS011;9053;53.358;6.382;2023-05-10T09:16:01;3.53;;;2.83;;
17854;SDS011;9053;53.358;6.382;2023-05-10T09:18:49;3.70;;;3.00;;
17854;SDS011;9053;53.358;6.382;2023-05-10T09:21:23;3.47;;;2.60;;
17854;SDS011;9053;53.358;6.382;2023-05-10T09:24:02;4.03;;;3.17;;
17854;SDS011;9053;53.358;6.382;2023-05-10T09:26:34;2.90;;;2.50;;
17854;SDS011;9053;53.358;6.382;2023-05-10T09:29:24;2.83;;;2.27;;
17854;SDS011;9053;53.358;6.382;2023-05-10T09:31:54;3.00;;;2.70;;
17854;SDS011;9053;53.358;6.382;2023-05-10T09:34:33;2.60;;;2.10;;
17854;SDS011;9053;53.358;6.382;2023-05-10T09:37:10;2.70;;;2.00;;
17854;SDS011;9053;53.358;6.382;2023-05-10T09:39:46;1.70;;;1.50;;
17854;SDS011;9053;53.358;6.382;2023-05-10T09:42:18;2.10;;;1.50;;
17854;SDS011;9053;53.358;6.382;2023-05-10T09:44:49;2.33;;;1.40;;
17854;SDS011;9053;53.358;6.382;2023-05-10T09:47:19;1.43;;;0.90;;
17854;SDS011;9053;53.358;6.382;2023-05-10T09:49:50;1.97;;;1.23;;
17854;SDS011;9053;53.358;6.382;2023-05-10T09:52:25;2.43;;;1.33;;
17854;SDS011;9053;53.358;6.382;2023-05-10T09:54:55;2.27;;;1.50;;
17854;SDS011;9053;53.358;6.382;2023-05-10T09:57:24;2.17;;;1.87;;
17854;SDS011;9053;53.358;6.382;2023-05-10T09:59:55;2.53;;;1.70;;
17854;SDS011;9053;53.358;6.382;2023-05-10T10:02:28;2.67;;;2.47;;
17854;SDS011;9053;53.358;6.382;2023-05-10T10:04:59;3.83;;;2.57;;
17854;SDS011;9053;53.358;6.382;2023-05-10T10:07:33;3.77;;;2.80;;
17854;SDS011;9053;53.358;6.382;2023-05-10T10:10:20;4.63;;;3.63;;
17854;SDS011;9053;53.358;6.382;2023-05-10T10:12:53;3.30;;;2.83;;
17854;SDS011;9053;53.358;6.382;2023-05-10T10:15:27;3.83;;;3.23;;
17854;SDS011;9053;53.358;6.382;2023-05-10T10:18:00;4.50;;;3.73;;
17854;SDS011;9053;53.358;6.382;2023-05-10T10:20:31;4.93;;;3.93;;
17854;SDS011;9053;53.358;6.382;2023-05-10T10:23:04;5.03;;;3.97;;
17854;SDS011;9053;53.358;6.382;2023-05-10T10:25:37;5.50;;;3.73;;
17854;SDS011;9053;53.358;6.382;2023-05-10T10:28:16;3.93;;;3.30;;
17854;SDS011;9053;53.358;6.382;2023-05-10T10:30:59;3.77;;;3.07;;
17854;SDS011;9053;53.358;6.382;2023-05-10T10:33:49;3.87;;;3.47;;
17854;SDS011;9053;53.358;6.382;2023-05-10T10:36:26;4.77;;;3.47;;
17854;SDS011;9053;53.358;6.382;2023-05-10T10:39:00;4.70;;;3.77;;
17854;SDS011;9053;53.358;6.382;2023-05-10T10:41:48;5.87;;;4.03;;
17854;SDS011;9053;53.358;6.382;2023-05-10T10:44:26;7.50;;;4.50;;
17854;SDS011;9053;53.358;6.382;2023-05-10T10:47:04;7.43;;;4.67;;
17854;SDS011;9053;53.358;6.382;2023-05-10T10:49:45;7.00;;;5.20;;
17854;SDS011;9053;53.358;6.382;2023-05-10T10:52:27;5.73;;;5.13;;
17854;SDS011;9053;53.358;6.382;2023-05-10T10:55:05;6.83;;;4.93;;
17854;SDS011;9053;53.358;6.382;2023-05-10T10:57:48;7.27;;;5.13;;
17854;SDS011;9053;53.358;6.382;2023-05-10T11:00:25;7.13;;;5.33;;
17854;SDS011;9053;53.358;6.382;2023-05-10T11:05:40;9.37;;;5.70;;
17854;SDS011;9053;53.358;6.382;2023-05-10T11:08:14;9.47;;;6.30;;
17854;SDS011;9053;53.358;6.382;2023-05-10T11:11:01;9.87;;;7.10;;
17854;SDS011;9053;53.358;6.382;2023-05-10T11:13:38;9.68;;;6.88;;
17854;SDS011;9053;53.358;6.382;2023-05-10T11:16:10;8.50;;;6.83;;
17854;SDS011;9053;53.358;6.382;2023-05-10T11:18:58;9.73;;;6.73;;
17854;SDS011;9053;53.358;6.382;2023-05-10T11:21:34;11.37;;;8.17;;
17854;SDS011;9053;53.358;6.382;2023-05-10T11:24:15;11.17;;;8.53;;
17854;SDS011;9053;53.358;6.382;2023-05-10T11:26:51;13.95;;;8.77;;
17854;SDS011;9053;53.358;6.382;2023-05-10T11:29:22;12.47;;;8.87;;
17854;SDS011;9053;53.358;6.382;2023-05-10T11:31:53;12.07;;;8.30;;
17854;SDS011;9053;53.358;6.382;2023-05-10T11:34:27;14.17;;;8.90;;
17854;SDS011;9053;53.358;6.382;2023-05-10T11:37:00;13.98;;;9.65;;
17854;SDS011;9053;53.358;6.382;2023-05-10T11:39:31;14.63;;;9.40;;
17854;SDS011;9053;53.358;6.382;2023-05-10T11:42:11;14.20;;;9.20;;
17854;SDS011;9053;53.358;6.382;2023-05-10T11:44:41;15.80;;;9.73;;
17854;SDS011;9053;53.358;6.382;2023-05-10T11:47:15;12.95;;;9.35;;
17854;SDS011;9053;53.358;6.382;2023-05-10T11:49:46;21.93;;;12.17;;
17854;SDS011;9053;53.358;6.382;2023-05-10T11:52:17;16.73;;;11.80;;
17854;SDS011;9053;53.358;6.382;2023-05-10T11:54:53;15.63;;;11.00;;
17854;SDS011;9053;53.358;6.382;2023-05-10T11:57:28;16.53;;;11.53;;
17854;SDS011;9053;53.358;6.382;2023-05-10T11:59:58;16.00;;;10.65;;
17854;SDS011;9053;53.358;6.382;2023-05-10T12:05:17;13.53;;;9.20;;
17854;SDS011;9053;53.358;6.382;2023-05-10T12:07:51;12.50;;;9.23;;
17854;SDS011;9053;53.358;6.382;2023-05-10T12:10:26;11.67;;;8.87;;
17854;SDS011;9053;53.358;6.382;2023-05-10T12:13:01;12.07;;;8.40;;
17854;SDS011;9053;53.358;6.382;2023-05-10T12:15:31;11.53;;;8.60;;
17854;SDS011;9053;53.358;6.382;2023-05-10T12:18:03;11.53;;;8.03;;
17854;SDS011;9053;53.358;6.382;2023-05-10T12:20:37;13.13;;;8.60;;
17854;SDS011;9053;53.358;6.382;2023-05-10T12:23:09;13.38;;;8.13;;
17854;SDS011;9053;53.358;6.382;2023-05-10T12:25:45;10.88;;;8.10;;
17854;SDS011;9053;53.358;6.382;2023-05-10T12:28:18;12.17;;;7.83;;
17854;SDS011;9053;53.358;6.382;2023-05-10T12:30:52;7.90;;;6.27;;
17854;SDS011;9053;53.358;6.382;2023-05-10T12:33:35;7.28;;;5.60;;
17854;SDS011;9053;53.358;6.382;2023-05-10T12:36:06;9.25;;;6.18;;
17854;SDS011;9053;53.358;6.382;2023-05-10T12:38:39;7.85;;;5.65;;
17854;SDS011;9053;53.358;6.382;2023-05-10T12:41:15;7.88;;;5.40;;
17854;SDS011;9053;53.358;6.382;2023-05-10T12:43:51;5.83;;;4.77;;
17854;SDS011;9053;53.358;6.382;2023-05-10T12:46:21;5.93;;;4.40;;
17854;SDS011;9053;53.358;6.382;2023-05-10T12:48:57;5.43;;;4.33;;
17854;SDS011;9053;53.358;6.382;2023-05-10T12:51:34;6.03;;;3.88;;
17854;SDS011;9053;53.358;6.382;2023-05-10T12:54:12;4.47;;;3.97;;
17854;SDS011;9053;53.358;6.382;2023-05-10T12:56:42;4.95;;;3.28;;
17854;SDS011;9053;53.358;6.382;2023-05-10T12:59:16;3.83;;;3.42;;
17854;SDS011;9053;53.358;6.382;2023-05-10T13:01:46;4.82;;;4.18;;
17854;SDS011;9053;53.358;6.382;2023-05-10T13:04:19;4.50;;;3.83;;
17854;SDS011;9053;53.358;6.382;2023-05-10T13:06:52;6.10;;;4.63;;
17854;SDS011;9053;53.358;6.382;2023-05-10T13:09:27;6.32;;;5.35;;
17854;SDS011;9053;53.358;6.382;2023-05-10T13:11:58;5.55;;;4.95;;
17854;SDS011;9053;53.358;6.382;2023-05-10T13:14:36;5.53;;;4.80;;
17854;SDS011;9053;53.358;6.382;2023-05-10T13:17:12;5.75;;;5.07;;
17854;SDS011;9053;53.358;6.382;2023-05-10T13:19:45;6.85;;;5.43;;
17854;SDS011;9053;53.358;6.382;2023-05-10T13:22:15;7.55;;;5.60;;
17854;SDS011;9053;53.358;6.382;2023-05-10T13:25:08;6.25;;;5.20;;
17854;SDS011;9053;53.358;6.382;2023-05-10T13:27:39;8.27;;;6.55;;
17854;SDS011;9053;53.358;6.382;2023-05-10T13:30:13;8.05;;;5.93;;
17854;SDS011;9053;53.358;6.382;2023-05-10T13:32:44;9.68;;;7.13;;
17854;SDS011;9053;53.358;6.382;2023-05-10T13:35:22;8.50;;;6.50;;
17854;SDS011;9053;53.358;6.382;2023-05-10T13:37:57;9.07;;;6.68;;
17854;SDS011;9053;53.358;6.382;2023-05-10T13:40:27;11.88;;;8.98;;
17854;SDS011;9053;53.358;6.382;2023-05-10T13:43:06;12.80;;;9.45;;
17854;SDS011;9053;53.358;6.382;2023-05-10T13:45:40;11.30;;;9.80;;
17854;SDS011;9053;53.358;6.382;2023-05-10T13:48:14;14.65;;;9.85;;
17854;SDS011;9053;53.358;6.382;2023-05-10T13:50:43;17.63;;;11.40;;
17854;SDS011;9053;53.358;6.382;2023-05-10T13:53:13;14.20;;;10.63;;
17854;SDS011;9053;53.358;6.382;2023-05-10T13:55:58;12.82;;;9.98;;
17854;SDS011;9053;53.358;6.382;2023-05-10T13:58:31;11.73;;;9.27;;
17854;SDS011;9053;53.358;6.382;2023-05-10T14:01:05;11.03;;;9.30;;
17854;SDS011;9053;53.358;6.382;2023-05-10T14:03:41;11.67;;;9.27;;
17854;SDS011;9053;53.358;6.382;2023-05-10T14:06:11;11.40;;;9.13;;
17854;SDS011;9053;53.358;6.382;2023-05-10T14:08:41;13.97;;;10.23;;
17854;SDS011;9053;53.358;6.382;2023-05-10T14:11:11;14.88;;;9.82;;
17854;SDS011;9053;53.358;6.382;2023-05-10T14:13:52;13.95;;;10.18;;
17854;SDS011;9053;53.358;6.382;2023-05-10T14:16:27;11.88;;;9.45;;
17854;SDS011;9053;53.358;6.382;2023-05-10T14:19:01;10.77;;;9.15;;
17854;SDS011;9053;53.358;6.382;2023-05-10T14:21:31;11.73;;;9.27;;
17854;SDS011;9053;53.358;6.382;2023-05-10T14:24:04;11.25;;;9.20;;
17854;SDS011;9053;53.358;6.382;2023-05-10T14:26:34;10.43;;;7.93;;
17854;SDS011;9053;53.358;6.382;2023-05-10T14:29:04;10.95;;;8.70;;
17854;SDS011;9053;53.358;6.382;2023-05-10T14:31:40;11.13;;;9.50;;
17854;SDS011;9053;53.358;6.382;2023-05-10T14:34:10;10.77;;;8.93;;
17854;SDS011;9053;53.358;6.382;2023-05-10T14:36:45;9.48;;;8.07;;
17854;SDS011;9053;53.358;6.382;2023-05-10T14:39:21;10.30;;;7.83;;
17854;SDS011;9053;53.358;6.382;2023-05-10T14:41:54;8.67;;;7.33;;
17854;SDS011;9053;53.358;6.382;2023-05-10T14:44:23;8.93;;;7.17;;
17854;SDS011;9053;53.358;6.382;2023-05-10T14:47:01;6.70;;;6.00;;
17854;SDS011;9053;53.358;6.382;2023-05-10T14:49:34;6.43;;;5.70;;
17854;SDS011;9053;53.358;6.382;2023-05-10T14:52:04;6.93;;;5.45;;
17854;SDS011;9053;53.358;6.382;2023-05-10T14:54:38;6.30;;;5.70;;
17854;SDS011;9053;53.358;6.382;2023-05-10T14:57:17;6.30;;;5.70;;
17854;SDS011;9053;53.358;6.382;2023-05-10T14:59:47;5.20;;;4.70;;
17854;SDS011;9053;53.358;6.382;2023-05-10T15:02:23;4.28;;;3.88;;
17854;SDS011;9053;53.358;6.382;2023-05-10T15:04:53;4.18;;;3.78;;
17854;SDS011;9053;53.358;6.382;2023-05-10T15:07:24;4.40;;;3.67;;
17854;SDS011;9053;53.358;6.382;2023-05-10T15:09:58;4.10;;;3.70;;
17854;SDS011;9053;53.358;6.382;2023-05-10T15:12:30;4.07;;;3.67;;
17854;SDS011;9053;53.358;6.382;2023-05-10T15:15:03;4.95;;;4.30;;
17854;SDS011;9053;53.358;6.382;2023-05-10T15:17:44;5.20;;;4.00;;
17854;SDS011;9053;53.358;6.382;2023-05-10T15:20:18;4.63;;;3.93;;
17854;SDS011;9053;53.358;6.382;2023-05-10T15:22:48;5.53;;;4.97;;
17854;SDS011;9053;53.358;6.382;2023-05-10T15:25:17;5.87;;;5.23;;
17854;SDS011;9053;53.358;6.382;2023-05-10T15:27:52;5.47;;;4.97;;
17854;SDS011;9053;53.358;6.382;2023-05-10T15:30:22;5.70;;;4.60;;
17854;SDS011;9053;53.358;6.382;2023-05-10T15:32:54;6.27;;;5.07;;
17854;SDS011;9053;53.358;6.382;2023-05-10T15:35:27;5.97;;;4.93;;
17854;SDS011;9053;53.358;6.382;2023-05-10T15:38:00;5.40;;;4.60;;
17854;SDS011;9053;53.358;6.382;2023-05-10T15:40:32;6.40;;;5.00;;
17854;SDS011;9053;53.358;6.382;2023-05-10T15:43:04;7.83;;;5.90;;
17854;SDS011;9053;53.358;6.382;2023-05-10T15:45:34;6.60;;;5.57;;
17854;SDS011;9053;53.358;6.382;2023-05-10T15:48:09;6.63;;;5.67;;
17854;SDS011;9053;53.358;6.382;2023-05-10T15:50:47;6.67;;;4.97;;
17854;SDS011;9053;53.358;6.382;2023-05-10T15:53:19;5.63;;;4.40;;
17854;SDS011;9053;53.358;6.382;2023-05-10T15:55:55;4.80;;;4.40;;
17854;SDS011;9053;53.358;6.382;2023-05-10T15:58:32;6.07;;;4.53;;
17854;SDS011;9053;53.358;6.382;2023-05-10T16:01:04;5.57;;;4.83;;
17854;SDS011;9053;53.358;6.382;2023-05-10T16:03:46;5.80;;;4.90;;
17854;SDS011;9053;53.358;6.382;2023-05-10T16:06:34;4.80;;;4.20;;
17854;SDS011;9053;53.358;6.382;2023-05-10T16:09:08;6.07;;;5.03;;
17854;SDS011;9053;53.358;6.382;2023-05-10T16:11:48;6.03;;;4.93;;
17854;SDS011;9053;53.358;6.382;2023-05-10T16:14:20;5.17;;;4.20;;
17854;SDS011;9053;53.358;6.382;2023-05-10T16:16:50;4.77;;;4.27;;
17854;SDS011;9053;53.358;6.382;2023-05-10T16:19:26;5.00;;;4.47;;
17854;SDS011;9053;53.358;6.382;2023-05-10T16:22:01;5.30;;;4.80;;
17854;SDS011;9053;53.358;6.382;2023-05-10T16:24:35;5.30;;;4.80;;
17854;SDS011;9053;53.358;6.382;2023-05-10T16:27:05;6.73;;;5.13;;
17854;SDS011;9053;53.358;6.382;2023-05-10T16:29:47;6.10;;;4.60;;
17854;SDS011;9053;53.358;6.382;2023-05-10T16:32:18;5.60;;;4.30;;
17854;SDS011;9053;53.358;6.382;2023-05-10T16:35:02;4.27;;;3.83;;
17854;SDS011;9053;53.358;6.382;2023-05-10T16:37:34;5.17;;;4.20;;
17854;SDS011;9053;53.358;6.382;2023-05-10T16:40:04;5.60;;;4.57;;
17854;SDS011;9053;53.358;6.382;2023-05-10T16:42:35;6.53;;;4.50;;
17854;SDS011;9053;53.358;6.382;2023-05-10T16:45:10;6.93;;;4.90;;
17854;SDS011;9053;53.358;6.382;2023-05-10T16:47:44;6.53;;;5.23;;
17854;SDS011;9053;53.358;6.382;2023-05-10T16:50:22;5.70;;;5.10;;
17854;SDS011;9053;53.358;6.382;2023-05-10T16:52:52;6.23;;;5.47;;
17854;SDS011;9053;53.358;6.382;2023-05-10T16:55:22;6.70;;;5.40;;
17854;SDS011;9053;53.358;6.382;2023-05-10T16:57:56;6.90;;;6.20;;
17854;SDS011;9053;53.358;6.382;2023-05-10T17:00:31;9.37;;;7.00;;
17854;SDS011;9053;53.358;6.382;2023-05-10T17:03:13;5.80;;;5.20;;
17854;SDS011;9053;53.358;6.382;2023-05-10T17:05:47;7.87;;;6.43;;
17854;SDS011;9053;53.358;6.382;2023-05-10T17:08:24;9.00;;;6.60;;
17854;SDS011;9053;53.358;6.382;2023-05-10T17:10:54;8.03;;;6.83;;
17854;SDS011;9053;53.358;6.382;2023-05-10T17:13:27;10.07;;;7.70;;
17854;SDS011;9053;53.358;6.382;2023-05-10T17:15:59;8.77;;;6.70;;
17854;SDS011;9053;53.358;6.382;2023-05-10T17:18:43;8.23;;;7.00;;
17854;SDS011;9053;53.358;6.382;2023-05-10T17:21:15;11.00;;;7.77;;
17854;SDS011;9053;53.358;6.382;2023-05-10T17:23:45;9.33;;;7.00;;
17854;SDS011;9053;53.358;6.382;2023-05-10T17:26:15;8.20;;;6.63;;
17854;SDS011;9053;53.358;6.382;2023-05-10T17:28:47;9.07;;;7.13;;
17854;SDS011;9053;53.358;6.382;2023-05-10T17:31:21;8.40;;;6.57;;
17854;SDS011;9053;53.358;6.382;2023-05-10T17:33:51;9.80;;;7.47;;
17854;SDS011;9053;53.358;6.382;2023-05-10T17:36:30;10.70;;;7.43;;
17854;SDS011;9053;53.358;6.382;2023-05-10T17:39:09;10.43;;;7.13;;
17854;SDS011;9053;53.358;6.382;2023-05-10T17:41:41;10.30;;;7.00;;
17854;SDS011;9053;53.358;6.382;2023-05-10T17:44:11;10.17;;;7.33;;
17854;SDS011;9053;53.358;6.382;2023-05-10T17:46:46;11.40;;;7.70;;
17854;SDS011;9053;53.358;6.382;2023-05-10T17:49:16;9.97;;;7.60;;
17854;SDS011;9053;53.358;6.382;2023-05-10T17:51:50;10.87;;;7.93;;
17854;SDS011;9053;53.358;6.382;2023-05-10T17:54:22;11.93;;;8.23;;
17854;SDS011;9053;53.358;6.382;2023-05-10T17:56:55;11.00;;;8.10;;
17854;SDS011;9053;53.358;6.382;2023-05-10T17:59:29;12.80;;;9.00;;
17854;SDS011;9053;53.358;6.382;2023-05-10T18:02:00;9.53;;;7.03;;
17854;SDS011;9053;53.358;6.382;2023-05-10T18:04:38;11.40;;;8.20;;
17854;SDS011;9053;53.358;6.382;2023-05-10T18:07:10;11.23;;;7.87;;
17854;SDS011;9053;53.358;6.382;2023-05-10T18:09:40;11.00;;;7.87;;
17854;SDS011;9053;53.358;6.382;2023-05-10T18:12:15;11.20;;;8.57;;
17854;SDS011;9053;53.358;6.382;2023-05-10T18:14:46;9.13;;;6.80;;
17854;SDS011;9053;53.358;6.382;2023-05-10T18:17:19;10.27;;;7.33;;
17854;SDS011;9053;53.358;6.382;2023-05-10T18:19:52;9.73;;;6.77;;
17854;SDS011;9053;53.358;6.382;2023-05-10T18:22:29;10.37;;;7.23;;
17854;SDS011;9053;53.358;6.382;2023-05-10T18:25:01;8.87;;;6.50;;
17854;SDS011;9053;53.358;6.382;2023-05-10T18:27:31;10.50;;;6.77;;
17854;SDS011;9053;53.358;6.382;2023-05-10T18:30:01;9.80;;;6.63;;
17854;SDS011;9053;53.358;6.382;2023-05-10T18:32:31;6.83;;;4.77;;
17854;SDS011;9053;53.358;6.382;2023-05-10T18:35:04;7.40;;;5.93;;
17854;SDS011;9053;53.358;6.382;2023-05-10T18:37:37;8.27;;;5.10;;
17854;SDS011;9053;53.358;6.382;2023-05-10T18:40:08;9.00;;;5.13;;
17854;SDS011;9053;53.358;6.382;2023-05-10T18:42:40;7.27;;;5.00;;
17854;SDS011;9053;53.358;6.382;2023-05-10T18:45:12;7.70;;;5.07;;
17854;SDS011;9053;53.358;6.382;2023-05-10T18:47:43;6.50;;;4.80;;
17854;SDS011;9053;53.358;6.382;2023-05-10T18:50:13;6.47;;;4.90;;
17854;SDS011;9053;53.358;6.382;2023-05-10T18:52:47;7.43;;;4.93;;
17854;SDS011;9053;53.358;6.382;2023-05-10T18:55:17;4.50;;;3.20;;
17854;SDS011;9053;53.358;6.382;2023-05-10T18:57:53;5.10;;;3.90;;